sensor_id;sensor_type;location;lat;lon;timestamp;temperature;humidity
71214;DHT22;58958;43.696;4.282;2023-09-07T00:01:23;20.70;63.10
71214;DHT22;58958;43.696;4.282;2023-09-07T00:03:48;20.60;63.60
71214;DHT22;58958;43.696;4.282;2023-09-07T00:06:15;20.50;63.90
71214;DHT22;58958;43.696;4.282;2023-09-07T00:08:40;20.50;64.00
71214;DHT22;58958;43.696;4.282;2023-09-07T00:11:06;20.50;63.90
71214;DHT22;58958;43.696;4.282;2023-09-07T00:13:33;20.50;64.20
71214;DHT22;58958;43.696;4.282;2023-09-07T00:15:59;20.40;64.30
71214;DHT22;58958;43.696;4.282;2023-09-07T00:18:26;20.40;64.30
71214;DHT22;58958;43.696;4.282;2023-09-07T00:20:52;20.30;64.30
71214;DHT22;58958;43.696;4.282;2023-09-07T00:23:18;20.40;64.10
71214;DHT22;58958;43.696;4.282;2023-09-07T00:25:45;20.40;64.20
71214;DHT22;58958;43.696;4.282;2023-09-07T00:28:11;20.50;64.20
71214;DHT22;58958;43.696;4.282;2023-09-07T00:30:37;20.40;63.90
71214;DHT22;58958;43.696;4.282;2023-09-07T00:33:03;20.40;63.90
71214;DHT22;58958;43.696;4.282;2023-09-07T00:35:28;20.40;64.00
71214;DHT22;58958;43.696;4.282;2023-09-07T00:37:54;20.30;64.30
71214;DHT22;58958;43.696;4.282;2023-09-07T00:40:20;20.30;64.40
71214;DHT22;58958;43.696;4.282;2023-09-07T00:42:46;20.30;64.50
71214;DHT22;58958;43.696;4.282;2023-09-07T00:45:11;20.20;64.70
71214;DHT22;58958;43.696;4.282;2023-09-07T00:47:38;20.20;64.90
71214;DHT22;58958;43.696;4.282;2023-09-07T00:50:05;20.20;65.30
71214;DHT22;58958;43.696;4.282;2023-09-07T00:52:32;20.10;65.70
71214;DHT22;58958;43.696;4.282;2023-09-07T00:54:58;20.00;65.40
71214;DHT22;58958;43.696;4.282;2023-09-07T00:57:25;20.00;65.50
71214;DHT22;58958;43.696;4.282;2023-09-07T00:59:50;20.00;65.80
71214;DHT22;58958;43.696;4.282;2023-09-07T01:02:16;19.90;65.90
71214;DHT22;58958;43.696;4.282;2023-09-07T01:04:42;20.00;66.80
71214;DHT22;58958;43.696;4.282;2023-09-07T01:07:16;19.90;65.90
71214;DHT22;58958;43.696;4.282;2023-09-07T01:09:45;20.00;65.60
71214;DHT22;58958;43.696;4.282;2023-09-07T01:12:15;20.00;65.50
71214;DHT22;58958;43.696;4.282;2023-09-07T01:14:42;20.00;65.40
71214;DHT22;58958;43.696;4.282;2023-09-07T01:17:09;20.10;65.40
71214;DHT22;58958;43.696;4.282;2023-09-07T01:19:34;20.10;65.40
71214;DHT22;58958;43.696;4.282;2023-09-07T01:22:00;20.10;65.60
71214;DHT22;58958;43.696;4.282;2023-09-07T01:24:28;20.20;65.70
71214;DHT22;58958;43.696;4.282;2023-09-07T01:26:59;20.10;65.60
71214;DHT22;58958;43.696;4.282;2023-09-07T01:29:26;20.10;65.60
71214;DHT22;58958;43.696;4.282;2023-09-07T01:31:54;20.10;66.00
71214;DHT22;58958;43.696;4.282;2023-09-07T01:34:20;20.00;66.20
71214;DHT22;58958;43.696;4.282;2023-09-07T01:36:46;20.00;66.80
71214;DHT22;58958;43.696;4.282;2023-09-07T01:39:11;19.80;66.70
71214;DHT22;58958;43.696;4.282;2023-09-07T01:41:37;19.60;67.50
71214;DHT22;58958;43.696;4.282;2023-09-07T01:44:03;19.40;68.20
71214;DHT22;58958;43.696;4.282;2023-09-07T01:46:29;19.40;67.90
71214;DHT22;58958;43.696;4.282;2023-09-07T01:48:54;19.70;67.10
71214;DHT22;58958;43.696;4.282;2023-09-07T01:51:20;19.80;66.40
71214;DHT22;58958;43.696;4.282;2023-09-07T01:53:49;19.90;66.10
71214;DHT22;58958;43.696;4.282;2023-09-07T01:56:17;19.90;65.60
71214;DHT22;58958;43.696;4.282;2023-09-07T01:58:43;20.00;66.00
71214;DHT22;58958;43.696;4.282;2023-09-07T02:01:29;19.90;66.10
71214;DHT22;58958;43.696;4.282;2023-09-07T02:03:55;19.90;65.80
71214;DHT22;58958;43.696;4.282;2023-09-07T02:06:21;20.00;65.30
71214;DHT22;58958;43.696;4.282;2023-09-07T02:08:46;20.00;64.70
71214;DHT22;58958;43.696;4.282;2023-09-07T02:11:12;20.00;64.40
71214;DHT22;58958;43.696;4.282;2023-09-07T02:13:41;19.80;64.40
71214;DHT22;58958;43.696;4.282;2023-09-07T02:16:07;19.70;64.70
71214;DHT22;58958;43.696;4.282;2023-09-07T02:18:32;19.70;65.00
71214;DHT22;58958;43.696;4.282;2023-09-07T02:21:05;19.70;65.20
71214;DHT22;58958;43.696;4.282;2023-09-07T02:23:32;19.70;64.80
71214;DHT22;58958;43.696;4.282;2023-09-07T02:25:58;19.60;65.10
71214;DHT22;58958;43.696;4.282;2023-09-07T02:28:24;19.60;65.50
71214;DHT22;58958;43.696;4.282;2023-09-07T02:30:51;19.60;65.40
71214;DHT22;58958;43.696;4.282;2023-09-07T02:33:17;19.60;65.50
71214;DHT22;58958;43.696;4.282;2023-09-07T02:35:43;19.60;65.90
71214;DHT22;58958;43.696;4.282;2023-09-07T02:38:08;19.70;65.70
71214;DHT22;58958;43.696;4.282;2023-09-07T02:40:43;19.60;65.90
71214;DHT22;58958;43.696;4.282;2023-09-07T02:43:12;19.50;65.70
71214;DHT22;58958;43.696;4.282;2023-09-07T02:45:38;19.50;66.00
71214;DHT22;58958;43.696;4.282;2023-09-07T02:48:05;19.50;65.90
71214;DHT22;58958;43.696;4.282;2023-09-07T02:50:32;19.40;65.80
71214;DHT22;58958;43.696;4.282;2023-09-07T02:52:58;19.50;65.80
71214;DHT22;58958;43.696;4.282;2023-09-07T02:55:25;19.40;65.70
71214;DHT22;58958;43.696;4.282;2023-09-07T02:57:51;19.40;65.80
71214;DHT22;58958;43.696;4.282;2023-09-07T03:00:17;19.10;66.40
71214;DHT22;58958;43.696;4.282;2023-09-07T03:02:43;19.20;66.30
71214;DHT22;58958;43.696;4.282;2023-09-07T03:05:09;19.30;65.70
71214;DHT22;58958;43.696;4.282;2023-09-07T03:07:35;19.20;65.50
71214;DHT22;58958;43.696;4.282;2023-09-07T03:10:01;19.30;65.30
71214;DHT22;58958;43.696;4.282;2023-09-07T03:12:27;19.20;65.30
71214;DHT22;58958;43.696;4.282;2023-09-07T03:14:53;19.20;65.60
71214;DHT22;58958;43.696;4.282;2023-09-07T03:17:19;19.20;65.40
71214;DHT22;58958;43.696;4.282;2023-09-07T03:19:46;19.20;65.30
71214;DHT22;58958;43.696;4.282;2023-09-07T03:22:13;19.20;65.60
71214;DHT22;58958;43.696;4.282;2023-09-07T03:24:39;19.10;65.70
71214;DHT22;58958;43.696;4.282;2023-09-07T03:27:05;19.10;65.40
71214;DHT22;58958;43.696;4.282;2023-09-07T03:29:34;19.10;65.40
71214;DHT22;58958;43.696;4.282;2023-09-07T03:32:01;19.10;65.90
71214;DHT22;58958;43.696;4.282;2023-09-07T03:34:27;18.90;66.70
71214;DHT22;58958;43.696;4.282;2023-09-07T03:36:52;18.50;68.40
71214;DHT22;58958;43.696;4.282;2023-09-07T03:39:18;18.30;69.30
71214;DHT22;58958;43.696;4.282;2023-09-07T03:41:48;18.30;69.00
71214;DHT22;58958;43.696;4.282;2023-09-07T03:44:14;18.60;68.30
71214;DHT22;58958;43.696;4.282;2023-09-07T03:46:39;18.80;67.50
71214;DHT22;58958;43.696;4.282;2023-09-07T03:49:05;18.90;67.00
71214;DHT22;58958;43.696;4.282;2023-09-07T03:51:31;19.00;66.40
71214;DHT22;58958;43.696;4.282;2023-09-07T03:53:57;19.00;66.10
71214;DHT22;58958;43.696;4.282;2023-09-07T03:56:22;19.00;66.40
71214;DHT22;58958;43.696;4.282;2023-09-07T03:58:48;19.00;66.40
71214;DHT22;58958;43.696;4.282;2023-09-07T04:01:14;19.00;66.30
71214;DHT22;58958;43.696;4.282;2023-09-07T04:03:40;19.00;67.30
71214;DHT22;58958;43.696;4.282;2023-09-07T04:06:07;18.70;67.80
71214;DHT22;58958;43.696;4.282;2023-09-07T04:08:32;18.60;68.20
71214;DHT22;58958;43.696;4.282;2023-09-07T04:11:02;18.60;68.20
71214;DHT22;58958;43.696;4.282;2023-09-07T04:13:28;18.70;67.40
71214;DHT22;58958;43.696;4.282;2023-09-07T04:15:54;18.70;67.20
71214;DHT22;58958;43.696;4.282;2023-09-07T04:18:19;18.50;66.80
71214;DHT22;58958;43.696;4.282;2023-09-07T04:20:45;18.20;67.90
71214;DHT22;58958;43.696;4.282;2023-09-07T04:23:11;18.10;69.10
71214;DHT22;58958;43.696;4.282;2023-09-07T04:25:36;18.30;68.30
71214;DHT22;58958;43.696;4.282;2023-09-07T04:28:05;18.60;67.50
71214;DHT22;58958;43.696;4.282;2023-09-07T04:30:30;18.70;66.90
71214;DHT22;58958;43.696;4.282;2023-09-07T04:32:57;18.90;66.20
71214;DHT22;58958;43.696;4.282;2023-09-07T04:35:28;19.00;65.90
71214;DHT22;58958;43.696;4.282;2023-09-07T04:37:55;19.00;65.70
71214;DHT22;58958;43.696;4.282;2023-09-07T04:40:22;19.00;65.60
71214;DHT22;58958;43.696;4.282;2023-09-07T04:42:47;18.80;65.90
71214;DHT22;58958;43.696;4.282;2023-09-07T04:45:13;18.60;66.60
71214;DHT22;58958;43.696;4.282;2023-09-07T04:47:39;18.40;67.50
71214;DHT22;58958;43.696;4.282;2023-09-07T04:50:05;18.00;68.50
71214;DHT22;58958;43.696;4.282;2023-09-07T04:52:32;17.90;69.10
71214;DHT22;58958;43.696;4.282;2023-09-07T04:54:57;17.70;69.70
71214;DHT22;58958;43.696;4.282;2023-09-07T04:57:23;17.60;70.30
71214;DHT22;58958;43.696;4.282;2023-09-07T04:59:49;17.50;70.80
71214;DHT22;58958;43.696;4.282;2023-09-07T05:02:14;17.60;70.30
71214;DHT22;58958;43.696;4.282;2023-09-07T05:04:40;17.70;70.00
71214;DHT22;58958;43.696;4.282;2023-09-07T05:07:06;17.70;69.40
71214;DHT22;58958;43.696;4.282;2023-09-07T05:09:31;17.70;69.10
71214;DHT22;58958;43.696;4.282;2023-09-07T05:11:58;17.60;69.30
71214;DHT22;58958;43.696;4.282;2023-09-07T05:14:25;17.80;69.10
71214;DHT22;58958;43.696;4.282;2023-09-07T05:16:50;17.90;68.40
71214;DHT22;58958;43.696;4.282;2023-09-07T05:19:16;18.20;67.00
71214;DHT22;58958;43.696;4.282;2023-09-07T05:21:42;18.40;65.50
71214;DHT22;58958;43.696;4.282;2023-09-07T05:24:08;18.60;65.20
71214;DHT22;58958;43.696;4.282;2023-09-07T05:26:34;18.70;64.90
71214;DHT22;58958;43.696;4.282;2023-09-07T05:28:59;18.70;64.10
71214;DHT22;58958;43.696;4.282;2023-09-07T05:31:25;18.80;63.70
71214;DHT22;58958;43.696;4.282;2023-09-07T05:33:51;18.90;63.20
71214;DHT22;58958;43.696;4.282;2023-09-07T05:36:19;18.90;62.70
71214;DHT22;58958;43.696;4.282;2023-09-07T05:38:45;18.90;62.90
71214;DHT22;58958;43.696;4.282;2023-09-07T05:41:10;18.90;62.40
71214;DHT22;58958;43.696;4.282;2023-09-07T05:43:36;18.80;62.70
71214;DHT22;58958;43.696;4.282;2023-09-07T05:46:01;18.80;62.50
71214;DHT22;58958;43.696;4.282;2023-09-07T05:48:27;18.90;62.10
71214;DHT22;58958;43.696;4.282;2023-09-07T05:50:53;18.90;61.70
71214;DHT22;58958;43.696;4.282;2023-09-07T05:53:19;19.00;61.70
71214;DHT22;58958;43.696;4.282;2023-09-07T05:55:50;18.80;61.50
71214;DHT22;58958;43.696;4.282;2023-09-07T05:58:15;18.80;61.80
71214;DHT22;58958;43.696;4.282;2023-09-07T06:00:41;18.90;61.20
71214;DHT22;58958;43.696;4.282;2023-09-07T06:03:07;18.90;61.30
71214;DHT22;58958;43.696;4.282;2023-09-07T06:05:34;19.00;60.90
71214;DHT22;58958;43.696;4.282;2023-09-07T06:08:01;19.10;60.80
71214;DHT22;58958;43.696;4.282;2023-09-07T06:10:28;19.10;60.80
71214;DHT22;58958;43.696;4.282;2023-09-07T06:12:55;19.20;60.70
71214;DHT22;58958;43.696;4.282;2023-09-07T06:15:21;19.10;61.10
71214;DHT22;58958;43.696;4.282;2023-09-07T06:17:46;19.20;61.20
71214;DHT22;58958;43.696;4.282;2023-09-07T06:20:12;19.20;60.70
71214;DHT22;58958;43.696;4.282;2023-09-07T06:22:38;19.30;60.30
71214;DHT22;58958;43.696;4.282;2023-09-07T06:25:04;19.40;60.20
71214;DHT22;58958;43.696;4.282;2023-09-07T06:27:30;19.40;60.20
71214;DHT22;58958;43.696;4.282;2023-09-07T06:29:55;19.50;60.20
71214;DHT22;58958;43.696;4.282;2023-09-07T06:32:22;19.60;59.80
71214;DHT22;58958;43.696;4.282;2023-09-07T06:34:48;19.60;59.80
71214;DHT22;58958;43.696;4.282;2023-09-07T06:37:13;19.70;59.70
71214;DHT22;58958;43.696;4.282;2023-09-07T06:39:39;19.80;59.60
71214;DHT22;58958;43.696;4.282;2023-09-07T06:42:08;19.80;59.70
71214;DHT22;58958;43.696;4.282;2023-09-07T06:44:34;19.90;59.50
71214;DHT22;58958;43.696;4.282;2023-09-07T06:47:00;20.00;59.70
71214;DHT22;58958;43.696;4.282;2023-09-07T06:49:26;20.10;59.30
71214;DHT22;58958;43.696;4.282;2023-09-07T06:51:57;20.00;59.70
71214;DHT22;58958;43.696;4.282;2023-09-07T06:54:23;20.10;59.70
71214;DHT22;58958;43.696;4.282;2023-09-07T06:56:49;20.20;59.20
71214;DHT22;58958;43.696;4.282;2023-09-07T06:59:15;20.20;59.10
71214;DHT22;58958;43.696;4.282;2023-09-07T07:01:41;20.30;58.70
71214;DHT22;58958;43.696;4.282;2023-09-07T07:04:06;20.40;59.00
71214;DHT22;58958;43.696;4.282;2023-09-07T07:06:33;20.40;59.00
71214;DHT22;58958;43.696;4.282;2023-09-07T07:08:58;20.50;58.70
71214;DHT22;58958;43.696;4.282;2023-09-07T07:11:24;20.60;58.50
71214;DHT22;58958;43.696;4.282;2023-09-07T07:13:50;20.70;58.20
71214;DHT22;58958;43.696;4.282;2023-09-07T07:16:16;20.80;58.50
71214;DHT22;58958;43.696;4.282;2023-09-07T07:18:42;20.80;58.40
71214;DHT22;58958;43.696;4.282;2023-09-07T07:21:08;20.90;58.00
71214;DHT22;58958;43.696;4.282;2023-09-07T07:23:35;21.00;58.10
71214;DHT22;58958;43.696;4.282;2023-09-07T07:26:00;21.00;58.10
71214;DHT22;58958;43.696;4.282;2023-09-07T07:28:26;21.10;57.80
71214;DHT22;58958;43.696;4.282;2023-09-07T07:30:52;21.20;57.50
71214;DHT22;58958;43.696;4.282;2023-09-07T07:33:19;21.30;57.40
71214;DHT22;58958;43.696;4.282;2023-09-07T07:35:45;21.40;57.10
71214;DHT22;58958;43.696;4.282;2023-09-07T07:38:11;21.50;56.70
71214;DHT22;58958;43.696;4.282;2023-09-07T07:40:39;21.60;56.50
71214;DHT22;58958;43.696;4.282;2023-09-07T07:43:04;21.80;56.50
71214;DHT22;58958;43.696;4.282;2023-09-07T07:45:31;22.00;56.00
71214;DHT22;58958;43.696;4.282;2023-09-07T07:48:02;22.20;55.40
71214;DHT22;58958;43.696;4.282;2023-09-07T07:50:28;22.50;54.40
71214;DHT22;58958;43.696;4.282;2023-09-07T07:52:53;23.00;53.10
71214;DHT22;58958;43.696;4.282;2023-09-07T07:55:19;23.70;51.60
71214;DHT22;58958;43.696;4.282;2023-09-07T07:57:44;24.40;49.80
71214;DHT22;58958;43.696;4.282;2023-09-07T08:00:11;25.10;48.80
71214;DHT22;58958;43.696;4.282;2023-09-07T08:02:36;25.90;47.00
71214;DHT22;58958;43.696;4.282;2023-09-07T08:05:03;26.40;46.50
71214;DHT22;58958;43.696;4.282;2023-09-07T08:07:29;27.00;44.10
71214;DHT22;58958;43.696;4.282;2023-09-07T08:09:55;27.50;44.00
71214;DHT22;58958;43.696;4.282;2023-09-07T08:12:21;27.80;43.20
71214;DHT22;58958;43.696;4.282;2023-09-07T08:14:46;28.20;42.20
71214;DHT22;58958;43.696;4.282;2023-09-07T08:17:12;28.50;42.20
71214;DHT22;58958;43.696;4.282;2023-09-07T08:19:38;29.20;40.50
71214;DHT22;58958;43.696;4.282;2023-09-07T08:22:04;29.80;39.30
71214;DHT22;58958;43.696;4.282;2023-09-07T08:24:31;30.30;38.70
71214;DHT22;58958;43.696;4.282;2023-09-07T08:26:56;30.30;38.30
71214;DHT22;58958;43.696;4.282;2023-09-07T08:29:23;30.80;37.60
71214;DHT22;58958;43.696;4.282;2023-09-07T08:31:52;31.00;36.30
71214;DHT22;58958;43.696;4.282;2023-09-07T08:34:18;31.10;36.10
71214;DHT22;58958;43.696;4.282;2023-09-07T08:36:46;31.30;35.70
71214;DHT22;58958;43.696;4.282;2023-09-07T08:39:12;31.40;35.10
71214;DHT22;58958;43.696;4.282;2023-09-07T08:42:09;31.70;35.50
71214;DHT22;58958;43.696;4.282;2023-09-07T08:44:37;32.50;35.10
71214;DHT22;58958;43.696;4.282;2023-09-07T08:47:04;33.50;34.20
71214;DHT22;58958;43.696;4.282;2023-09-07T08:49:30;33.70;33.40
71214;DHT22;58958;43.696;4.282;2023-09-07T08:51:58;33.40;33.00
71214;DHT22;58958;43.696;4.282;2023-09-07T08:54:25;33.90;33.20
71214;DHT22;58958;43.696;4.282;2023-09-07T08:56:51;35.10;31.80
71214;DHT22;58958;43.696;4.282;2023-09-07T08:59:25;35.50;31.70
71214;DHT22;58958;43.696;4.282;2023-09-07T09:01:56;35.60;31.20
71214;DHT22;58958;43.696;4.282;2023-09-07T09:04:22;35.50;30.90
71214;DHT22;58958;43.696;4.282;2023-09-07T09:06:48;35.40;31.00
71214;DHT22;58958;43.696;4.282;2023-09-07T09:09:22;35.70;29.90
71214;DHT22;58958;43.696;4.282;2023-09-07T09:11:51;33.70;31.70
71214;DHT22;58958;43.696;4.282;2023-09-07T09:14:17;34.20;34.20
71214;DHT22;58958;43.696;4.282;2023-09-07T09:16:51;35.00;33.00
71214;DHT22;58958;43.696;4.282;2023-09-07T09:22:24;32.60;36.20
71214;DHT22;58958;43.696;4.282;2023-09-07T09:24:50;33.90;31.80
71214;DHT22;58958;43.696;4.282;2023-09-07T09:27:19;35.00;31.50
71214;DHT22;58958;43.696;4.282;2023-09-07T09:30:03;34.50;31.40
71214;DHT22;58958;43.696;4.282;2023-09-07T09:32:47;34.90;32.30
71214;DHT22;58958;43.696;4.282;2023-09-07T09:35:27;34.90;31.70
71214;DHT22;58958;43.696;4.282;2023-09-07T09:38:17;35.00;32.00
71214;DHT22;58958;43.696;4.282;2023-09-07T09:40:42;34.60;32.00
71214;DHT22;58958;43.696;4.282;2023-09-07T09:43:09;34.30;32.60
71214;DHT22;58958;43.696;4.282;2023-09-07T09:45:35;34.10;33.10
71214;DHT22;58958;43.696;4.282;2023-09-07T09:48:01;33.50;32.60
71214;DHT22;58958;43.696;4.282;2023-09-07T09:50:28;33.30;31.70
71214;DHT22;58958;43.696;4.282;2023-09-07T09:52:55;33.30;31.50
71214;DHT22;58958;43.696;4.282;2023-09-07T09:55:22;33.40;33.10
71214;DHT22;58958;43.696;4.282;2023-09-07T09:57:49;34.20;31.50
71214;DHT22;58958;43.696;4.282;2023-09-07T10:00:16;35.30;31.50
71214;DHT22;58958;43.696;4.282;2023-09-07T10:02:48;35.90;30.40
71214;DHT22;58958;43.696;4.282;2023-09-07T10:05:16;36.10;30.50
71214;DHT22;58958;43.696;4.282;2023-09-07T10:07:44;37.70;27.90
71214;DHT22;58958;43.696;4.282;2023-09-07T10:10:13;38.90;27.60
71214;DHT22;58958;43.696;4.282;2023-09-07T10:12:53;39.20;28.20
71214;DHT22;58958;43.696;4.282;2023-09-07T10:15:26;38.80;26.70
71214;DHT22;58958;43.696;4.282;2023-09-07T10:18:15;40.10;26.90
71214;DHT22;58958;43.696;4.282;2023-09-07T10:23:19;40.90;25.70
71214;DHT22;58958;43.696;4.282;2023-09-07T10:25:52;41.40;26.10
71214;DHT22;58958;43.696;4.282;2023-09-07T10:28:22;41.40;24.70
71214;DHT22;58958;43.696;4.282;2023-09-07T10:31:05;41.90;24.40
71214;DHT22;58958;43.696;4.282;2023-09-07T10:33:33;41.00;24.70
71214;DHT22;58958;43.696;4.282;2023-09-07T10:36:08;40.20;25.20
71214;DHT22;58958;43.696;4.282;2023-09-07T10:38:45;41.60;24.50
71214;DHT22;58958;43.696;4.282;2023-09-07T10:41:10;42.90;24.20
71214;DHT22;58958;43.696;4.282;2023-09-07T10:43:55;42.10;23.80
71214;DHT22;58958;43.696;4.282;2023-09-07T10:46:22;41.40;25.40
71214;DHT22;58958;43.696;4.282;2023-09-07T10:48:53;41.10;26.10
71214;DHT22;58958;43.696;4.282;2023-09-07T10:51:19;41.20;25.80
71214;DHT22;58958;43.696;4.282;2023-09-07T10:53:45;42.10;24.60
71214;DHT22;58958;43.696;4.282;2023-09-07T10:56:11;42.60;24.40
71214;DHT22;58958;43.696;4.282;2023-09-07T10:58:38;42.90;24.70
71214;DHT22;58958;43.696;4.282;2023-09-07T11:01:06;43.80;24.20
71214;DHT22;58958;43.696;4.282;2023-09-07T11:03:32;42.40;23.60
71214;DHT22;58958;43.696;4.282;2023-09-07T11:06:12;42.10;23.90
71214;DHT22;58958;43.696;4.282;2023-09-07T11:08:39;42.80;24.30
71214;DHT22;58958;43.696;4.282;2023-09-07T11:11:05;43.40;24.00
71214;DHT22;58958;43.696;4.282;2023-09-07T11:13:31;43.80;22.80
71214;DHT22;58958;43.696;4.282;2023-09-07T11:15:58;44.30;22.50
71214;DHT22;58958;43.696;4.282;2023-09-07T11:18:25;43.20;23.80
71214;DHT22;58958;43.696;4.282;2023-09-07T11:20:52;43.70;23.60
71214;DHT22;58958;43.696;4.282;2023-09-07T11:23:19;43.30;23.30
71214;DHT22;58958;43.696;4.282;2023-09-07T11:25:47;45.00;22.80
71214;DHT22;58958;43.696;4.282;2023-09-07T11:28:12;44.40;22.80
71214;DHT22;58958;43.696;4.282;2023-09-07T11:33:17;42.10;24.00
71214;DHT22;58958;43.696;4.282;2023-09-07T11:35:44;42.10;23.90
71214;DHT22;58958;43.696;4.282;2023-09-07T11:38:13;42.60;23.90
71214;DHT22;58958;43.696;4.282;2023-09-07T11:40:39;43.50;23.90
71214;DHT22;58958;43.696;4.282;2023-09-07T11:43:08;42.80;24.00
71214;DHT22;58958;43.696;4.282;2023-09-07T11:45:34;42.70;24.40
71214;DHT22;58958;43.696;4.282;2023-09-07T11:47:59;43.20;23.70
71214;DHT22;58958;43.696;4.282;2023-09-07T11:50:25;42.70;24.10
71214;DHT22;58958;43.696;4.282;2023-09-07T11:52:51;41.90;24.20
71214;DHT22;58958;43.696;4.282;2023-09-07T11:55:17;42.80;24.90
71214;DHT22;58958;43.696;4.282;2023-09-07T11:57:43;41.70;24.40
71214;DHT22;58958;43.696;4.282;2023-09-07T12:00:09;42.20;24.60
71214;DHT22;58958;43.696;4.282;2023-09-07T12:02:39;40.80;25.10
71214;DHT22;58958;43.696;4.282;2023-09-07T12:05:05;39.20;25.60
71214;DHT22;58958;43.696;4.282;2023-09-07T12:07:33;39.60;26.90
71214;DHT22;58958;43.696;4.282;2023-09-07T12:09:59;39.70;25.90
71214;DHT22;58958;43.696;4.282;2023-09-07T12:12:25;39.60;26.80
71214;DHT22;58958;43.696;4.282;2023-09-07T12:14:51;38.90;26.90
71214;DHT22;58958;43.696;4.282;2023-09-07T12:17:17;38.20;27.40
71214;DHT22;58958;43.696;4.282;2023-09-07T12:19:45;37.40;27.90
71214;DHT22;58958;43.696;4.282;2023-09-07T12:22:12;36.70;28.20
71214;DHT22;58958;43.696;4.282;2023-09-07T12:24:37;37.40;28.10
71214;DHT22;58958;43.696;4.282;2023-09-07T12:27:16;37.50;28.00
71214;DHT22;58958;43.696;4.282;2023-09-07T12:29:45;37.20;28.30
71214;DHT22;58958;43.696;4.282;2023-09-07T12:32:11;37.30;28.30
71214;DHT22;58958;43.696;4.282;2023-09-07T12:34:37;37.20;28.00
71214;DHT22;58958;43.696;4.282;2023-09-07T12:37:04;37.20;28.00
71214;DHT22;58958;43.696;4.282;2023-09-07T12:39:30;37.10;27.40
71214;DHT22;58958;43.696;4.282;2023-09-07T12:41:56;35.30;29.20
71214;DHT22;58958;43.696;4.282;2023-09-07T12:44:22;35.10;30.10
71214;DHT22;58958;43.696;4.282;2023-09-07T12:46:58;35.50;29.70
71214;DHT22;58958;43.696;4.282;2023-09-07T12:49:27;36.10;29.10
71214;DHT22;58958;43.696;4.282;2023-09-07T12:52:00;35.90;29.90
71214;DHT22;58958;43.696;4.282;2023-09-07T12:54:28;36.10;29.50
71214;DHT22;58958;43.696;4.282;2023-09-07T12:56:54;36.20;28.90
71214;DHT22;58958;43.696;4.282;2023-09-07T12:59:19;36.00;29.80
71214;DHT22;58958;43.696;4.282;2023-09-07T13:01:45;35.60;28.60
71214;DHT22;58958;43.696;4.282;2023-09-07T13:04:11;35.50;29.40
71214;DHT22;58958;43.696;4.282;2023-09-07T13:06:37;34.80;29.90
71214;DHT22;58958;43.696;4.282;2023-09-07T13:09:03;35.10;29.30
71214;DHT22;58958;43.696;4.282;2023-09-07T13:11:30;35.00;29.20
71214;DHT22;58958;43.696;4.282;2023-09-07T13:13:56;35.00;29.50
71214;DHT22;58958;43.696;4.282;2023-09-07T13:16:21;35.20;29.40
71214;DHT22;58958;43.696;4.282;2023-09-07T13:18:47;35.40;30.00
71214;DHT22;58958;43.696;4.282;2023-09-07T13:21:12;35.00;30.80
71214;DHT22;58958;43.696;4.282;2023-09-07T13:23:38;35.00;29.50
71214;DHT22;58958;43.696;4.282;2023-09-07T13:26:04;35.30;29.20
71214;DHT22;58958;43.696;4.282;2023-09-07T13:28:29;35.40;29.30
71214;DHT22;58958;43.696;4.282;2023-09-07T13:30:55;35.40;28.80
71214;DHT22;58958;43.696;4.282;2023-09-07T13:33:21;35.70;28.50
71214;DHT22;58958;43.696;4.282;2023-09-07T13:35:46;35.00;27.90
71214;DHT22;58958;43.696;4.282;2023-09-07T13:38:12;35.30;29.20
71214;DHT22;58958;43.696;4.282;2023-09-07T13:40:38;35.20;28.80
71214;DHT22;58958;43.696;4.282;2023-09-07T13:43:03;34.40;30.40
71214;DHT22;58958;43.696;4.282;2023-09-07T13:45:29;34.70;30.20
71214;DHT22;58958;43.696;4.282;2023-09-07T13:47:55;34.80;29.60
71214;DHT22;58958;43.696;4.282;2023-09-07T13:50:21;34.30;30.70
71214;DHT22;58958;43.696;4.282;2023-09-07T13:52:48;34.70;29.50
71214;DHT22;58958;43.696;4.282;2023-09-07T13:55:13;34.70;29.50
71214;DHT22;58958;43.696;4.282;2023-09-07T13:57:39;34.50;30.30
71214;DHT22;58958;43.696;4.282;2023-09-07T14:00:05;34.30;30.30
71214;DHT22;58958;43.696;4.282;2023-09-07T14:02:31;34.40;30.40
71214;DHT22;58958;43.696;4.282;2023-09-07T14:04:58;34.80;29.80
71214;DHT22;58958;43.696;4.282;2023-09-07T14:07:24;34.60;30.20
71214;DHT22;58958;43.696;4.282;2023-09-07T14:09:54;34.60;30.10
71214;DHT22;58958;43.696;4.282;2023-09-07T14:12:20;34.40;30.10
71214;DHT22;58958;43.696;4.282;2023-09-07T14:14:47;34.60;29.60
71214;DHT22;58958;43.696;4.282;2023-09-07T14:17:13;34.80;30.10
71214;DHT22;58958;43.696;4.282;2023-09-07T14:19:39;34.90;29.70
71214;DHT22;58958;43.696;4.282;2023-09-07T14:22:05;34.50;30.50
71214;DHT22;58958;43.696;4.282;2023-09-07T14:24:30;34.40;29.80
71214;DHT22;58958;43.696;4.282;2023-09-07T14:26:56;33.70;30.70
71214;DHT22;58958;43.696;4.282;2023-09-07T14:29:22;33.80;30.30
71214;DHT22;58958;43.696;4.282;2023-09-07T14:31:48;33.80;30.80
71214;DHT22;58958;43.696;4.282;2023-09-07T14:34:14;34.10;30.20
71214;DHT22;58958;43.696;4.282;2023-09-07T14:36:39;34.30;30.20
71214;DHT22;58958;43.696;4.282;2023-09-07T14:39:08;34.30;29.50
71214;DHT22;58958;43.696;4.282;2023-09-07T14:41:37;34.30;29.90
71214;DHT22;58958;43.696;4.282;2023-09-07T14:44:03;34.30;29.90
71214;DHT22;58958;43.696;4.282;2023-09-07T14:46:29;33.80;29.90
71214;DHT22;58958;43.696;4.282;2023-09-07T14:49:01;33.40;30.00
71214;DHT22;58958;43.696;4.282;2023-09-07T14:51:37;33.90;29.50
71214;DHT22;58958;43.696;4.282;2023-09-07T14:54:03;34.00;30.30
71214;DHT22;58958;43.696;4.282;2023-09-07T14:56:32;34.00;30.00
71214;DHT22;58958;43.696;4.282;2023-09-07T14:59:01;34.90;29.40
71214;DHT22;58958;43.696;4.282;2023-09-07T15:01:26;35.20;28.60
71214;DHT22;58958;43.696;4.282;2023-09-07T15:03:52;35.60;28.50
71214;DHT22;58958;43.696;4.282;2023-09-07T15:06:18;35.90;28.10
71214;DHT22;58958;43.696;4.282;2023-09-07T15:08:44;35.90;27.70
71214;DHT22;58958;43.696;4.282;2023-09-07T15:11:10;35.80;28.50
71214;DHT22;58958;43.696;4.282;2023-09-07T15:13:37;37.40;27.70
71214;DHT22;58958;43.696;4.282;2023-09-07T15:16:04;38.20;26.90
71214;DHT22;58958;43.696;4.282;2023-09-07T15:18:30;37.40;27.40
71214;DHT22;58958;43.696;4.282;2023-09-07T15:20:57;36.90;28.30
71214;DHT22;58958;43.696;4.282;2023-09-07T15:23:23;37.00;27.50
71214;DHT22;58958;43.696;4.282;2023-09-07T15:25:49;37.00;28.10
71214;DHT22;58958;43.696;4.282;2023-09-07T15:28:14;37.50;27.10
71214;DHT22;58958;43.696;4.282;2023-09-07T15:30:42;36.40;27.80
71214;DHT22;58958;43.696;4.282;2023-09-07T15:33:08;34.70;30.00
71214;DHT22;58958;43.696;4.282;2023-09-07T15:35:34;33.20;31.00
71214;DHT22;58958;43.696;4.282;2023-09-07T15:37:59;32.40;32.30